sensor_id;sensor_type;location;lat;lon;timestamp;temperature;humidity
29917;DHT22;16786;49.466;11.068;2022-11-20T00:01:30;1.40;99.90
29917;DHT22;16786;49.466;11.068;2022-11-20T00:03:59;1.40;99.90
29917;DHT22;16786;49.466;11.068;2022-11-20T00:06:27;1.40;99.90
29917;DHT22;16786;49.466;11.068;2022-11-20T00:08:57;1.40;99.90
29917;DHT22;16786;49.466;11.068;2022-11-20T00:11:26;1.40;99.90
29917;DHT22;16786;49.466;11.068;2022-11-20T00:13:57;1.40;99.90
29917;DHT22;16786;49.466;11.068;2022-11-20T00:16:26;1.40;99.90
29917;DHT22;16786;49.466;11.068;2022-11-20T00:18:54;1.40;99.90
29917;DHT22;16786;49.466;11.068;2022-11-20T00:21:24;1.40;99.90
29917;DHT22;16786;49.466;11.068;2022-11-20T00:23:53;1.40;99.90
29917;DHT22;16786;49.466;11.068;2022-11-20T00:26:22;1.40;99.90
29917;DHT22;16786;49.466;11.068;2022-11-20T00:29:00;1.40;99.90
29917;DHT22;16786;49.466;11.068;2022-11-20T00:31:29;1.40;99.90
29917;DHT22;16786;49.466;11.068;2022-11-20T00:33:57;1.40;99.90
29917;DHT22;16786;49.466;11.068;2022-11-20T00:36:26;1.40;99.90
29917;DHT22;16786;49.466;11.068;2022-11-20T00:38:55;1.40;99.90
29917;DHT22;16786;49.466;11.068;2022-11-20T00:41:24;1.50;99.90
29917;DHT22;16786;49.466;11.068;2022-11-20T00:43:53;1.50;99.90
29917;DHT22;16786;49.466;11.068;2022-11-20T00:46:23;1.60;99.90
29917;DHT22;16786;49.466;11.068;2022-11-20T00:48:50;1.60;99.90
29917;DHT22;16786;49.466;11.068;2022-11-20T00:51:20;1.70;99.90
29917;DHT22;16786;49.466;11.068;2022-11-20T00:53:47;1.70;99.90
29917;DHT22;16786;49.466;11.068;2022-11-20T00:56:17;1.70;99.90
29917;DHT22;16786;49.466;11.068;2022-11-20T00:58:46;1.70;99.90
29917;DHT22;16786;49.466;11.068;2022-11-20T01:01:19;1.70;99.90
29917;DHT22;16786;49.466;11.068;2022-11-20T01:03:49;1.70;99.90
29917;DHT22;16786;49.466;11.068;2022-11-20T01:06:21;1.80;99.90
29917;DHT22;16786;49.466;11.068;2022-11-20T01:08:50;1.80;99.90
29917;DHT22;16786;49.466;11.068;2022-11-20T01:11:22;1.80;99.90
29917;DHT22;16786;49.466;11.068;2022-11-20T01:13:50;1.80;99.90
29917;DHT22;16786;49.466;11.068;2022-11-20T01:16:27;1.90;99.90
29917;DHT22;16786;49.466;11.068;2022-11-20T01:18:57;1.90;99.90
29917;DHT22;16786;49.466;11.068;2022-11-20T01:21:36;1.80;99.90
29917;DHT22;16786;49.466;11.068;2022-11-20T01:24:06;1.80;99.90
29917;DHT22;16786;49.466;11.068;2022-11-20T01:26:36;1.80;99.90
29917;DHT22;16786;49.466;11.068;2022-11-20T01:29:06;1.80;99.90
29917;DHT22;16786;49.466;11.068;2022-11-20T01:31:36;1.80;99.90
29917;DHT22;16786;49.466;11.068;2022-11-20T01:34:10;1.90;99.90
29917;DHT22;16786;49.466;11.068;2022-11-20T01:36:38;1.80;99.90
29917;DHT22;16786;49.466;11.068;2022-11-20T01:39:19;1.90;99.90
29917;DHT22;16786;49.466;11.068;2022-11-20T01:41:48;1.90;99.90
29917;DHT22;16786;49.466;11.068;2022-11-20T01:44:48;1.90;99.90
29917;DHT22;16786;49.466;11.068;2022-11-20T01:47:43;2.00;99.90
29917;DHT22;16786;49.466;11.068;2022-11-20T01:52:47;2.00;99.90
29917;DHT22;16786;49.466;11.068;2022-11-20T01:55:25;2.00;99.90
29917;DHT22;16786;49.466;11.068;2022-11-20T01:57:54;1.90;99.90
29917;DHT22;16786;49.466;11.068;2022-11-20T02:00:22;1.90;99.90
29917;DHT22;16786;49.466;11.068;2022-11-20T02:03:25;1.80;99.90
29917;DHT22;16786;49.466;11.068;2022-11-20T02:06:04;1.90;99.90
29917;DHT22;16786;49.466;11.068;2022-11-20T02:08:34;1.90;99.90
29917;DHT22;16786;49.466;11.068;2022-11-20T02:11:02;1.90;99.90
29917;DHT22;16786;49.466;11.068;2022-11-20T02:13:29;1.90;99.90
29917;DHT22;16786;49.466;11.068;2022-11-20T02:16:18;1.90;99.90
29917;DHT22;16786;49.466;11.068;2022-11-20T02:18:47;1.90;99.90
29917;DHT22;16786;49.466;11.068;2022-11-20T02:21:28;1.90;99.90
29917;DHT22;16786;49.466;11.068;2022-11-20T02:26:26;1.90;99.90
29917;DHT22;16786;49.466;11.068;2022-11-20T02:28:54;1.90;99.90
29917;DHT22;16786;49.466;11.068;2022-11-20T02:31:22;1.90;99.90
29917;DHT22;16786;49.466;11.068;2022-11-20T02:33:55;1.90;99.90
29917;DHT22;16786;49.466;11.068;2022-11-20T02:36:24;1.80;99.90
29917;DHT22;16786;49.466;11.068;2022-11-20T02:38:53;1.80;99.90
29917;DHT22;16786;49.466;11.068;2022-11-20T02:41:21;1.80;99.90
29917;DHT22;16786;49.466;11.068;2022-11-20T02:43:49;1.80;99.90
29917;DHT22;16786;49.466;11.068;2022-11-20T02:46:16;1.70;99.90
29917;DHT22;16786;49.466;11.068;2022-11-20T02:48:43;1.70;99.90
29917;DHT22;16786;49.466;11.068;2022-11-20T02:51:10;1.70;99.90
29917;DHT22;16786;49.466;11.068;2022-11-20T02:53:37;1.70;99.90
29917;DHT22;16786;49.466;11.068;2022-11-20T02:56:05;1.80;99.90
29917;DHT22;16786;49.466;11.068;2022-11-20T02:58:33;1.80;99.90
29917;DHT22;16786;49.466;11.068;2022-11-20T03:01:00;1.80;99.90
29917;DHT22;16786;49.466;11.068;2022-11-20T03:03:27;1.80;99.90
29917;DHT22;16786;49.466;11.068;2022-11-20T03:05:55;1.80;99.90
29917;DHT22;16786;49.466;11.068;2022-11-20T03:08:22;1.70;99.90
29917;DHT22;16786;49.466;11.068;2022-11-20T03:10:49;1.70;99.90
29917;DHT22;16786;49.466;11.068;2022-11-20T03:13:17;1.70;99.90
29917;DHT22;16786;49.466;11.068;2022-11-20T03:15:44;1.80;99.90
29917;DHT22;16786;49.466;11.068;2022-11-20T03:18:11;1.80;99.90
29917;DHT22;16786;49.466;11.068;2022-11-20T03:20:40;1.80;99.90
29917;DHT22;16786;49.466;11.068;2022-11-20T03:23:07;1.90;99.90
29917;DHT22;16786;49.466;11.068;2022-11-20T03:25:35;1.80;99.90
29917;DHT22;16786;49.466;11.068;2022-11-20T03:28:02;1.80;99.90
29917;DHT22;16786;49.466;11.068;2022-11-20T03:30:30;1.80;99.90
29917;DHT22;16786;49.466;11.068;2022-11-20T03:32:57;1.80;99.90
29917;DHT22;16786;49.466;11.068;2022-11-20T03:35:24;1.80;99.90
29917;DHT22;16786;49.466;11.068;2022-11-20T03:37:52;1.80;99.90
29917;DHT22;16786;49.466;11.068;2022-11-20T03:40:20;1.80;99.90
29917;DHT22;16786;49.466;11.068;2022-11-20T03:42:47;1.80;99.90
29917;DHT22;16786;49.466;11.068;2022-11-20T03:45:18;1.70;99.90
29917;DHT22;16786;49.466;11.068;2022-11-20T03:47:45;1.70;99.90
29917;DHT22;16786;49.466;11.068;2022-11-20T03:50:14;1.60;99.90
29917;DHT22;16786;49.466;11.068;2022-11-20T03:52:42;1.70;99.90
29917;DHT22;16786;49.466;11.068;2022-11-20T03:55:09;1.70;99.90
29917;DHT22;16786;49.466;11.068;2022-11-20T03:57:36;1.70;99.90
29917;DHT22;16786;49.466;11.068;2022-11-20T04:00:05;1.70;99.90
29917;DHT22;16786;49.466;11.068;2022-11-20T04:02:32;1.70;99.90
29917;DHT22;16786;49.466;11.068;2022-11-20T04:04:59;1.60;99.90
29917;DHT22;16786;49.466;11.068;2022-11-20T04:07:27;1.70;99.90
29917;DHT22;16786;49.466;11.068;2022-11-20T04:09:54;1.60;99.90
29917;DHT22;16786;49.466;11.068;2022-11-20T04:12:21;1.70;99.90
29917;DHT22;16786;49.466;11.068;2022-11-20T04:14:49;1.70;99.90
29917;DHT22;16786;49.466;11.068;2022-11-20T04:17:16;1.70;99.90
29917;DHT22;16786;49.466;11.068;2022-11-20T04:19:43;1.70;99.90
29917;DHT22;16786;49.466;11.068;2022-11-20T04:22:10;1.70;99.90
29917;DHT22;16786;49.466;11.068;2022-11-20T04:24:39;1.70;99.90
29917;DHT22;16786;49.466;11.068;2022-11-20T04:27:06;1.70;99.90
29917;DHT22;16786;49.466;11.068;2022-11-20T04:29:33;1.70;99.90
29917;DHT22;16786;49.466;11.068;2022-11-20T04:32:01;1.70;99.90
29917;DHT22;16786;49.466;11.068;2022-11-20T04:34:28;1.80;99.90
29917;DHT22;16786;49.466;11.068;2022-11-20T04:36:56;1.80;99.90
29917;DHT22;16786;49.466;11.068;2022-11-20T04:39:24;1.80;99.90
29917;DHT22;16786;49.466;11.068;2022-11-20T04:41:51;1.80;99.90
29917;DHT22;16786;49.466;11.068;2022-11-20T04:44:38;1.90;99.90
29917;DHT22;16786;49.466;11.068;2022-11-20T04:47:06;1.90;99.90
29917;DHT22;16786;49.466;11.068;2022-11-20T04:49:33;1.90;99.90
29917;DHT22;16786;49.466;11.068;2022-11-20T04:52:01;1.80;99.90
29917;DHT22;16786;49.466;11.068;2022-11-20T04:54:28;1.80;99.90
29917;DHT22;16786;49.466;11.068;2022-11-20T04:56:55;1.80;99.90
29917;DHT22;16786;49.466;11.068;2022-11-20T04:59:23;1.90;99.90
29917;DHT22;16786;49.466;11.068;2022-11-20T05:01:50;1.90;99.90
29917;DHT22;16786;49.466;11.068;2022-11-20T05:04:18;2.00;99.90
29917;DHT22;16786;49.466;11.068;2022-11-20T05:06:46;2.00;99.90
29917;DHT22;16786;49.466;11.068;2022-11-20T05:09:14;1.90;99.90
29917;DHT22;16786;49.466;11.068;2022-11-20T05:11:41;1.90;99.90
29917;DHT22;16786;49.466;11.068;2022-11-20T05:14:08;2.00;99.90
29917;DHT22;16786;49.466;11.068;2022-11-20T05:16:36;1.90;99.90
29917;DHT22;16786;49.466;11.068;2022-11-20T05:19:03;1.90;99.90
29917;DHT22;16786;49.466;11.068;2022-11-20T05:21:31;1.90;99.90
29917;DHT22;16786;49.466;11.068;2022-11-20T05:23:59;1.90;99.90
29917;DHT22;16786;49.466;11.068;2022-11-20T05:26:26;2.00;99.90
29917;DHT22;16786;49.466;11.068;2022-11-20T05:28:54;2.00;99.90
29917;DHT22;16786;49.466;11.068;2022-11-20T05:31:23;2.00;99.90
29917;DHT22;16786;49.466;11.068;2022-11-20T05:33:55;2.00;99.90
29917;DHT22;16786;49.466;11.068;2022-11-20T05:36:23;2.00;99.90
29917;DHT22;16786;49.466;11.068;2022-11-20T05:38:50;2.00;99.90
29917;DHT22;16786;49.466;11.068;2022-11-20T05:41:24;2.00;99.90
29917;DHT22;16786;49.466;11.068;2022-11-20T05:43:52;2.10;99.90
29917;DHT22;16786;49.466;11.068;2022-11-20T05:46:20;2.10;99.90
29917;DHT22;16786;49.466;11.068;2022-11-20T05:48:55;2.00;99.90
29917;DHT22;16786;49.466;11.068;2022-11-20T05:51:23;2.00;99.90
29917;DHT22;16786;49.466;11.068;2022-11-20T05:53:50;2.00;99.90
29917;DHT22;16786;49.466;11.068;2022-11-20T05:56:20;2.00;99.90
29917;DHT22;16786;49.466;11.068;2022-11-20T05:58:47;2.10;99.90
29917;DHT22;16786;49.466;11.068;2022-11-20T06:01:33;2.00;99.90
29917;DHT22;16786;49.466;11.068;2022-11-20T06:04:02;2.00;99.90
29917;DHT22;16786;49.466;11.068;2022-11-20T06:06:30;2.10;99.90
29917;DHT22;16786;49.466;11.068;2022-11-20T06:08:57;2.10;99.90
29917;DHT22;16786;49.466;11.068;2022-11-20T06:11:26;2.10;99.90
29917;DHT22;16786;49.466;11.068;2022-11-20T06:13:53;2.20;99.90
29917;DHT22;16786;49.466;11.068;2022-11-20T06:16:20;2.20;99.90
29917;DHT22;16786;49.466;11.068;2022-11-20T06:18:49;2.20;99.90
29917;DHT22;16786;49.466;11.068;2022-11-20T06:21:20;2.30;99.90
29917;DHT22;16786;49.466;11.068;2022-11-20T06:23:48;2.30;99.90
29917;DHT22;16786;49.466;11.068;2022-11-20T06:26:22;2.30;99.90
29917;DHT22;16786;49.466;11.068;2022-11-20T06:28:50;2.30;99.90
29917;DHT22;16786;49.466;11.068;2022-11-20T06:31:20;2.30;99.90
29917;DHT22;16786;49.466;11.068;2022-11-20T06:33:48;2.30;99.90
29917;DHT22;16786;49.466;11.068;2022-11-20T06:36:17;2.30;99.90
29917;DHT22;16786;49.466;11.068;2022-11-20T06:38:45;2.30;99.90
29917;DHT22;16786;49.466;11.068;2022-11-20T06:41:19;2.20;99.90
29917;DHT22;16786;49.466;11.068;2022-11-20T06:43:47;2.20;99.90
29917;DHT22;16786;49.466;11.068;2022-11-20T06:46:16;2.30;99.90
29917;DHT22;16786;49.466;11.068;2022-11-20T06:48:48;2.30;99.90
29917;DHT22;16786;49.466;11.068;2022-11-20T06:51:16;2.40;99.90
29917;DHT22;16786;49.466;11.068;2022-11-20T06:53:43;2.30;99.90
29917;DHT22;16786;49.466;11.068;2022-11-20T06:56:11;2.30;99.90
29917;DHT22;16786;49.466;11.068;2022-11-20T06:58:38;2.30;99.90
29917;DHT22;16786;49.466;11.068;2022-11-20T07:01:10;2.30;99.90
29917;DHT22;16786;49.466;11.068;2022-11-20T07:03:38;2.30;99.90
29917;DHT22;16786;49.466;11.068;2022-11-20T07:06:06;2.40;99.90
29917;DHT22;16786;49.466;11.068;2022-11-20T07:08:34;2.40;99.90
29917;DHT22;16786;49.466;11.068;2022-11-20T07:11:04;2.40;99.90
29917;DHT22;16786;49.466;11.068;2022-11-20T07:13:32;2.40;99.90
29917;DHT22;16786;49.466;11.068;2022-11-20T07:16:01;2.40;99.90
29917;DHT22;16786;49.466;11.068;2022-11-20T07:18:29;2.50;99.90
29917;DHT22;16786;49.466;11.068;2022-11-20T07:21:03;2.50;99.90
29917;DHT22;16786;49.466;11.068;2022-11-20T07:23:31;2.60;99.90
29917;DHT22;16786;49.466;11.068;2022-11-20T07:26:02;2.60;99.90
29917;DHT22;16786;49.466;11.068;2022-11-20T07:28:29;2.70;99.90
29917;DHT22;16786;49.466;11.068;2022-11-20T07:30:56;2.70;99.90
29917;DHT22;16786;49.466;11.068;2022-11-20T07:33:24;2.70;99.90
29917;DHT22;16786;49.466;11.068;2022-11-20T07:35:51;2.60;99.90
29917;DHT22;16786;49.466;11.068;2022-11-20T07:38:19;2.70;99.90
29917;DHT22;16786;49.466;11.068;2022-11-20T07:40:46;2.70;99.90
29917;DHT22;16786;49.466;11.068;2022-11-20T07:43:13;2.70;99.90
29917;DHT22;16786;49.466;11.068;2022-11-20T07:45:41;2.70;99.90
29917;DHT22;16786;49.466;11.068;2022-11-20T07:48:09;2.80;99.90
29917;DHT22;16786;49.466;11.068;2022-11-20T07:50:36;2.90;99.90
29917;DHT22;16786;49.466;11.068;2022-11-20T07:53:07;2.90;99.90
29917;DHT22;16786;49.466;11.068;2022-11-20T07:55:34;3.00;99.90
29917;DHT22;16786;49.466;11.068;2022-11-20T07:58:02;3.10;99.90
29917;DHT22;16786;49.466;11.068;2022-11-20T08:00:29;3.10;99.90
29917;DHT22;16786;49.466;11.068;2022-11-20T08:02:56;3.20;99.90
29917;DHT22;16786;49.466;11.068;2022-11-20T08:05:23;3.20;99.90
29917;DHT22;16786;49.466;11.068;2022-11-20T08:07:51;3.30;99.90
29917;DHT22;16786;49.466;11.068;2022-11-20T08:10:18;3.30;99.90
29917;DHT22;16786;49.466;11.068;2022-11-20T08:12:47;3.30;99.90
29917;DHT22;16786;49.466;11.068;2022-11-20T08:15:34;3.30;99.90
29917;DHT22;16786;49.466;11.068;2022-11-20T08:18:09;3.30;99.90
29917;DHT22;16786;49.466;11.068;2022-11-20T08:21:00;3.30;99.90
29917;DHT22;16786;49.466;11.068;2022-11-20T08:23:28;3.30;99.90
29917;DHT22;16786;49.466;11.068;2022-11-20T08:25:55;3.30;99.90
29917;DHT22;16786;49.466;11.068;2022-11-20T08:28:22;3.40;99.90
29917;DHT22;16786;49.466;11.068;2022-11-20T08:30:50;3.40;99.90
29917;DHT22;16786;49.466;11.068;2022-11-20T08:33:17;3.40;99.90
29917;DHT22;16786;49.466;11.068;2022-11-20T08:35:45;3.50;99.90
29917;DHT22;16786;49.466;11.068;2022-11-20T08:38:12;3.50;99.90
29917;DHT22;16786;49.466;11.068;2022-11-20T08:40:40;3.50;99.90
29917;DHT22;16786;49.466;11.068;2022-11-20T08:43:07;3.60;99.90
29917;DHT22;16786;49.466;11.068;2022-11-20T08:45:34;3.60;99.90
29917;DHT22;16786;49.466;11.068;2022-11-20T08:48:03;3.70;99.90
29917;DHT22;16786;49.466;11.068;2022-11-20T08:50:31;3.80;99.90
29917;DHT22;16786;49.466;11.068;2022-11-20T08:53:06;3.80;99.90
29917;DHT22;16786;49.466;11.068;2022-11-20T08:55:33;3.80;99.90
29917;DHT22;16786;49.466;11.068;2022-11-20T08:58:06;3.80;99.90
29917;DHT22;16786;49.466;11.068;2022-11-20T09:00:34;3.80;99.90
29917;DHT22;16786;49.466;11.068;2022-11-20T09:03:01;3.80;99.90
29917;DHT22;16786;49.466;11.068;2022-11-20T09:05:29;3.80;99.90
29917;DHT22;16786;49.466;11.068;2022-11-20T09:07:57;3.80;99.90
29917;DHT22;16786;49.466;11.068;2022-11-20T09:10:26;3.80;99.90
29917;DHT22;16786;49.466;11.068;2022-11-20T09:12:54;3.80;99.90
29917;DHT22;16786;49.466;11.068;2022-11-20T09:15:25;3.90;99.90
29917;DHT22;16786;49.466;11.068;2022-11-20T09:17:54;3.80;99.90
29917;DHT22;16786;49.466;11.068;2022-11-20T09:20:22;3.90;99.90
29917;DHT22;16786;49.466;11.068;2022-11-20T09:22:49;3.90;99.90
29917;DHT22;16786;49.466;11.068;2022-11-20T09:25:17;3.90;99.90
29917;DHT22;16786;49.466;11.068;2022-11-20T09:27:45;4.00;99.90
29917;DHT22;16786;49.466;11.068;2022-11-20T09:30:14;4.00;99.90
29917;DHT22;16786;49.466;11.068;2022-11-20T09:32:42;4.00;99.90
29917;DHT22;16786;49.466;11.068;2022-11-20T09:35:10;4.00;99.90
29917;DHT22;16786;49.466;11.068;2022-11-20T09:37:38;4.10;99.90
29917;DHT22;16786;49.466;11.068;2022-11-20T09:40:06;4.20;99.90
29917;DHT22;16786;49.466;11.068;2022-11-20T09:53:57;4.50;99.90
29917;DHT22;16786;49.466;11.068;2022-11-20T09:56:28;4.50;99.90
29917;DHT22;16786;49.466;11.068;2022-11-20T09:59:03;4.50;99.90
29917;DHT22;16786;49.466;11.068;2022-11-20T10:01:38;4.60;99.90
29917;DHT22;16786;49.466;11.068;2022-11-20T10:04:16;4.60;99.90
29917;DHT22;16786;49.466;11.068;2022-11-20T10:09:57;4.60;99.90
29917;DHT22;16786;49.466;11.068;2022-11-20T10:18:49;4.70;99.90
29917;DHT22;16786;49.466;11.068;2022-11-20T10:26:17;4.80;99.90
29917;DHT22;16786;49.466;11.068;2022-11-20T10:35:01;4.80;99.90
29917;DHT22;16786;49.466;11.068;2022-11-20T10:37:25;4.80;99.90
29917;DHT22;16786;49.466;11.068;2022-11-20T10:39:59;4.80;99.90
29917;DHT22;16786;49.466;11.068;2022-11-20T10:42:56;4.80;99.90
29917;DHT22;16786;49.466;11.068;2022-11-20T10:47:58;4.70;99.90
29917;DHT22;16786;49.466;11.068;2022-11-20T10:50:28;4.70;99.90
29917;DHT22;16786;49.466;11.068;2022-11-20T10:53:25;4.70;99.90
29917;DHT22;16786;49.466;11.068;2022-11-20T10:56:05;4.70;99.90
29917;DHT22;16786;49.466;11.068;2022-11-20T11:01:22;4.90;99.90
29917;DHT22;16786;49.466;11.068;2022-11-20T11:03:55;4.90;99.90
29917;DHT22;16786;49.466;11.068;2022-11-20T11:06:33;4.90;99.90
29917;DHT22;16786;49.466;11.068;2022-11-20T11:09:13;4.90;99.90
29917;DHT22;16786;49.466;11.068;2022-11-20T11:11:43;5.10;99.90
29917;DHT22;16786;49.466;11.068;2022-11-20T11:14:14;5.10;99.90
29917;DHT22;16786;49.466;11.068;2022-11-20T11:16:53;5.10;99.90
29917;DHT22;16786;49.466;11.068;2022-11-20T11:19:20;5.20;99.90
29917;DHT22;16786;49.466;11.068;2022-11-20T11:21:54;5.30;99.90
29917;DHT22;16786;49.466;11.068;2022-11-20T11:24:29;5.20;99.90
29917;DHT22;16786;49.466;11.068;2022-11-20T11:27:14;5.10;99.90
29917;DHT22;16786;49.466;11.068;2022-11-20T11:29:46;4.60;99.90
29917;DHT22;16786;49.466;11.068;2022-11-20T11:32:14;4.20;99.90
29917;DHT22;16786;49.466;11.068;2022-11-20T11:34:42;3.80;99.90
29917;DHT22;16786;49.466;11.068;2022-11-20T11:37:33;3.80;99.90
29917;DHT22;16786;49.466;11.068;2022-11-20T11:40:02;3.90;99.90
29917;DHT22;16786;49.466;11.068;2022-11-20T11:42:58;3.90;99.90
29917;DHT22;16786;49.466;11.068;2022-11-20T11:45:27;4.10;99.90
29917;DHT22;16786;49.466;11.068;2022-11-20T11:47:57;4.20;99.90
29917;DHT22;16786;49.466;11.068;2022-11-20T11:50:27;4.30;99.90
29917;DHT22;16786;49.466;11.068;2022-11-20T11:55:44;4.30;99.90
29917;DHT22;16786;49.466;11.068;2022-11-20T12:01:29;4.20;99.90
29917;DHT22;16786;49.466;11.068;2022-11-20T12:07:15;4.80;99.90
29917;DHT22;16786;49.466;11.068;2022-11-20T12:13:35;5.00;99.90
29917;DHT22;16786;49.466;11.068;2022-11-20T12:15:34;5.00;99.90
29917;DHT22;16786;49.466;11.068;2022-11-20T12:18:09;5.00;99.90
29917;DHT22;16786;49.466;11.068;2022-11-20T12:26:35;4.80;99.90
29917;DHT22;16786;49.466;11.068;2022-11-20T12:29:14;4.70;99.90
29917;DHT22;16786;49.466;11.068;2022-11-20T12:32:01;4.60;99.90
29917;DHT22;16786;49.466;11.068;2022-11-20T12:34:58;4.50;99.90
29917;DHT22;16786;49.466;11.068;2022-11-20T12:40:27;4.50;99.90
29917;DHT22;16786;49.466;11.068;2022-11-20T12:43:06;4.50;99.90
29917;DHT22;16786;49.466;11.068;2022-11-20T12:52:18;4.70;99.90
29917;DHT22;16786;49.466;11.068;2022-11-20T12:57:48;4.50;99.90
29917;DHT22;16786;49.466;11.068;2022-11-20T13:00:20;4.40;99.90
29917;DHT22;16786;49.466;11.068;2022-11-20T13:03:12;4.40;99.90
29917;DHT22;16786;49.466;11.068;2022-11-20T13:08:39;4.40;99.90
29917;DHT22;16786;49.466;11.068;2022-11-20T13:14:40;4.40;99.90
29917;DHT22;16786;49.466;11.068;2022-11-20T13:17:22;4.30;99.90
29917;DHT22;16786;49.466;11.068;2022-11-20T13:19:56;4.30;99.90
29917;DHT22;16786;49.466;11.068;2022-11-20T13:22:43;4.20;99.90
29917;DHT22;16786;49.466;11.068;2022-11-20T13:25:47;4.20;99.90
29917;DHT22;16786;49.466;11.068;2022-11-20T13:30:52;4.20;99.90
29917;DHT22;16786;49.466;11.068;2022-11-20T13:33:29;4.10;99.90
29917;DHT22;16786;49.466;11.068;2022-11-20T13:36:05;4.10;99.90
29917;DHT22;16786;49.466;11.068;2022-11-20T13:38:49;4.10;99.90
29917;DHT22;16786;49.466;11.068;2022-11-20T13:41:27;4.00;99.90
29917;DHT22;16786;49.466;11.068;2022-11-20T13:44:46;4.00;99.90
29917;DHT22;16786;49.466;11.068;2022-11-20T13:46:47;4.00;99.90
29917;DHT22;16786;49.466;11.068;2022-11-20T13:49:38;4.00;99.90
29917;DHT22;16786;49.466;11.068;2022-11-20T13:55:28;3.90;99.90
29917;DHT22;16786;49.466;11.068;2022-11-20T13:58:26;3.80;99.90
29917;DHT22;16786;49.466;11.068;2022-11-20T14:01:21;3.80;99.90
29917;DHT22;16786;49.466;11.068;2022-11-20T14:03:50;3.80;99.90
29917;DHT22;16786;49.466;11.068;2022-11-20T14:06:42;3.80;99.90
29917;DHT22;16786;49.466;11.068;2022-11-20T14:09:31;3.80;99.90
29917;DHT22;16786;49.466;11.068;2022-11-20T14:11:59;3.80;99.90
29917;DHT22;16786;49.466;11.068;2022-11-20T14:14:28;3.80;99.90
29917;DHT22;16786;49.466;11.068;2022-11-20T14:17:18;3.80;99.90
29917;DHT22;16786;49.466;11.068;2022-11-20T14:19:47;3.80;99.90
29917;DHT22;16786;49.466;11.068;2022-11-20T14:22:22;3.80;99.90
29917;DHT22;16786;49.466;11.068;2022-11-20T14:27:41;3.80;99.90
29917;DHT22;16786;49.466;11.068;2022-11-20T14:30:23;3.80;99.90
29917;DHT22;16786;49.466;11.068;2022-11-20T14:32:54;3.80;99.90
29917;DHT22;16786;49.466;11.068;2022-11-20T14:37:51;3.80;99.90
29917;DHT22;16786;49.466;11.068;2022-11-20T14:40:28;3.80;99.90
29917;DHT22;16786;49.466;11.068;2022-11-20T14:42:57;3.80;99.90
29917;DHT22;16786;49.466;11.068;2022-11-20T14:45:25;3.80;99.90
29917;DHT22;16786;49.466;11.068;2022-11-20T14:47:55;3.80;99.90
29917;DHT22;16786;49.466;11.068;2022-11-20T14:50:28;3.80;99.90
29917;DHT22;16786;49.466;11.068;2022-11-20T14:52:58;3.80;99.90
29917;DHT22;16786;49.466;11.068;2022-11-20T14:55:35;3.70;99.90
29917;DHT22;16786;49.466;11.068;2022-11-20T14:58:20;3.70;99.90
29917;DHT22;16786;49.466;11.068;2022-11-20T15:01:02;3.80;99.90
29917;DHT22;16786;49.466;11.068;2022-11-20T15:03:39;3.80;99.90
29917;DHT22;16786;49.466;11.068;2022-11-20T15:06:11;3.80;99.90
29917;DHT22;16786;49.466;11.068;2022-11-20T15:08:38;3.70;99.90
29917;DHT22;16786;49.466;11.068;2022-11-20T15:11:30;3.80;99.90
29917;DHT22;16786;49.466;11.068;2022-11-20T15:14:03;3.80;99.90
29917;DHT22;16786;49.466;11.068;2022-11-20T15:16:32;3.80;99.90
29917;DHT22;16786;49.466;11.068;2022-11-20T15:19:15;3.80;99.90
29917;DHT22;16786;49.466;11.068;2022-11-20T15:21:43;3.70;99.90
29917;DHT22;16786;49.466;11.068;2022-11-20T15:24:11;3.70;99.90
29917;DHT22;16786;49.466;11.068;2022-11-20T15:26:38;3.70;99.90
29917;DHT22;16786;49.466;11.068;2022-11-20T15:29:13;3.70;99.90
29917;DHT22;16786;49.466;11.068;2022-11-20T15:31:41;3.70;99.90
29917;DHT22;16786;49.466;11.068;2022-11-20T15:34:19;3.70;99.90
29917;DHT22;16786;49.466;11.068;2022-11-20T15:36:46;3.70;99.90
29917;DHT22;16786;49.466;11.068;2022-11-20T15:39:14;3.70;99.90
29917;DHT22;16786;49.466;11.068;2022-11-20T15:41:41;3.80;99.90
29917;DHT22;16786;49.466;11.068;2022-11-20T15:44:09;3.80;99.90
29917;DHT22;16786;49.466;11.068;2022-11-20T15:46:39;3.70;99.90
29917;DHT22;16786;49.466;11.068;2022-11-20T15:49:12;3.80;99.90
29917;DHT22;16786;49.466;11.068;2022-11-20T15:51:43;3.80;99.90
29917;DHT22;16786;49.466;11.068;2022-11-20T15:54:16;3.80;99.90
29917;DHT22;16786;49.466;11.068;2022-11-20T15:56:48;3.80;99.90
29917;DHT22;16786;49.466;11.068;2022-11-20T15:59:16;3.80;99.90
29917;DHT22;16786;49.466;11.068;2022-11-20T16:01:44;3.80;99.90
29917;DHT22;16786;49.466;11.068;2022-11-20T16:04:16;3.80;99.90
29917;DHT22;16786;49.466;11.068;2022-11-20T16:06:43;3.90;99.90
29917;DHT22;16786;49.466;11.068;2022-11-20T16:09:11;3.90;99.90
29917;DHT22;16786;49.466;11.068;2022-11-20T16:11:39;3.90;99.90
29917;DHT22;16786;49.466;11.068;2022-11-20T16:14:10;3.90;99.90
29917;DHT22;16786;49.466;11.068;2022-11-20T16:16:55;3.90;99.90
29917;DHT22;16786;49.466;11.068;2022-11-20T16:19:23;3.90;99.90
29917;DHT22;16786;49.466;11.068;2022-11-20T16:21:50;3.90;99.90
29917;DHT22;16786;49.466;11.068;2022-11-20T16:24:18;4.00;99.90
29917;DHT22;16786;49.466;11.068;2022-11-20T16:26:46;4.00;99.90
29917;DHT22;16786;49.466;11.068;2022-11-20T16:29:14;4.00;99.90
29917;DHT22;16786;49.466;11.068;2022-11-20T16:31:41;4.00;99.90
29917;DHT22;16786;49.466;11.068;2022-11-20T16:34:09;4.00;99.90
29917;DHT22;16786;49.466;11.068;2022-11-20T16:36:50;4.10;99.90
29917;DHT22;16786;49.466;11.068;2022-11-20T16:39:17;4.10;99.90
29917;DHT22;16786;49.466;11.068;2022-11-20T16:41:50;4.10;99.90
29917;DHT22;16786;49.466;11.068;2022-11-20T16:44:17;4.10;99.90
29917;DHT22;16786;49.466;11.068;2022-11-20T16:46:45;4.10;99.90
29917;DHT22;16786;49.466;11.068;2022-11-20T16:49:13;4.10;99.90
29917;DHT22;16786;49.466;11.068;2022-11-20T16:51:41;4.10;99.90
29917;DHT22;16786;49.466;11.068;2022-11-20T16:54:09;4.20;99.90
29917;DHT22;16786;49.466;11.068;2022-11-20T16:56:44;4.20;99.90
29917;DHT22;16786;49.466;11.068;2022-11-20T16:59:13;4.20;99.90
29917;DHT22;16786;49.466;11.068;2022-11-20T17:01:41;4.20;99.90
29917;DHT22;16786;49.466;11.068;2022-11-20T17:04:10;4.30;99.90
29917;DHT22;16786;49.466;11.068;2022-11-20T17:06:41;4.30;99.90
29917;DHT22;16786;49.466;11.068;2022-11-20T17:09:10;4.30;99.90
29917;DHT22;16786;49.466;11.068;2022-11-20T17:11:39;4.30;99.90
29917;DHT22;16786;49.466;11.068;2022-11-20T17:14:06;4.30;99.90
29917;DHT22;16786;49.466;11.068;2022-11-20T17:16:35;4.40;99.90
29917;DHT22;16786;49.466;11.068;2022-11-20T17:19:04;4.40;99.90
29917;DHT22;16786;49.466;11.068;2022-11-20T17:21:32;4.30;99.90
29917;DHT22;16786;49.466;11.068;2022-11-20T17:24:04;4.30;99.90
29917;DHT22;16786;49.466;11.068;2022-11-20T17:26:33;4.30;99.90